Terminal Aerodrome Forecast
Issued by NWS Portland, ME

Home | Current Version | Previous Version | Text Only | Print | Product List | Glossary On
Versions: 1 2 3 4 5 6 7 8 9 10 11 12 13 14 15 16 17 18 19 20
993
FTUS41 KGYX 302328
TAFPWM
TAF
KPWM 302328Z 0100/0124 17005KT P6SM OVC050
     FM010900 10004KT P6SM -RA OVC015
     FM012200 10006KT 3SM -DZ BR BKN004 OVC007=

USA.gov is the U.S. government's official web portal to all federal, state and local government web resources and services.